createdAt,value
2022-12-20T00:03:55.124Z,18.83
2022-12-20T00:08:59.056Z,20.93
2022-12-20T00:14:00.700Z,19.90
2022-12-20T00:19:05.003Z,20.90
2022-12-20T00:24:07.124Z,19.73
2022-12-20T00:29:08.811Z,19.57
2022-12-20T00:34:10.789Z,19.73
2022-12-20T00:39:12.468Z,20.63
2022-12-20T00:44:14.126Z,20.37
2022-12-20T00:49:16.576Z,20.40
2022-12-20T00:54:18.247Z,19.87
2022-12-20T00:59:20.794Z,20.10
2022-12-20T01:04:25.938Z,20.63
2022-12-20T01:09:27.564Z,20.37
2022-12-20T01:14:29.392Z,19.93
2022-12-20T01:19:31.077Z,19.90
2022-12-20T01:24:32.682Z,18.73
2022-12-20T01:29:34.273Z,20.10
2022-12-20T01:34:35.999Z,20.63
2022-12-20T01:39:37.640Z,19.60
2022-12-20T01:44:42.353Z,20.60
2022-12-20T01:49:46.583Z,20.53
2022-12-20T01:54:55.138Z,20.47
2022-12-20T01:59:57.406Z,20.90
2022-12-20T02:04:59.238Z,20.33
2022-12-20T02:10:01.756Z,20.90
2022-12-20T02:15:18.325Z,20.43
2022-12-20T02:20:38.509Z,19.83
2022-12-20T02:26:02.013Z,19.67
2022-12-20T02:31:07.336Z,20.20
2022-12-20T02:36:09.170Z,19.67
2022-12-20T02:41:43.143Z,20.17
2022-12-20T02:46:45.144Z,19.40
2022-12-20T02:51:48.986Z,19.33
2022-12-20T02:56:56.240Z,19.43
2022-12-20T03:01:59.694Z,19.23
2022-12-20T03:07:10.471Z,19.93
2022-12-20T03:12:13.225Z,19.87
2022-12-20T03:17:15.196Z,19.80
2022-12-20T03:22:17.162Z,19.10
2022-12-20T03:27:19.665Z,18.87
2022-12-20T03:32:21.739Z,19.90
2022-12-20T03:37:23.543Z,19.23
2022-12-20T03:42:25.700Z,20.00
2022-12-20T03:47:27.442Z,19.20
2022-12-20T03:52:30.221Z,19.17
2022-12-20T03:57:31.940Z,20.70
2022-12-20T04:02:34.671Z,18.53
2022-12-20T04:07:36.646Z,20.27
2022-12-20T04:12:38.385Z,19.33
2022-12-20T04:17:44.322Z,19.53
2022-12-20T04:22:50.873Z,19.60
2022-12-20T04:27:52.702Z,19.00
2022-12-20T04:32:54.945Z,20.03
2022-12-20T04:37:57.642Z,19.57
2022-12-20T04:42:59.870Z,19.87
2022-12-20T04:48:21.129Z,18.97
2022-12-20T04:53:42.555Z,19.63
2022-12-20T04:58:46.242Z,19.67
2022-12-20T05:03:49.185Z,18.30
2022-12-20T05:08:51.266Z,18.50
2022-12-20T05:13:53.015Z,18.73
2022-12-20T05:18:56.097Z,19.03
2022-12-20T05:24:16.825Z,18.93
2022-12-20T05:29:41.003Z,18.70
2022-12-20T05:34:42.679Z,18.33
2022-12-20T05:39:44.875Z,16.50
2022-12-20T05:44:52.982Z,17.30
2022-12-20T05:49:56.367Z,18.53
2022-12-20T05:54:58.167Z,18.00
2022-12-20T06:00:01.175Z,17.03
2022-12-20T06:05:07.214Z,17.47
2022-12-20T06:10:09.756Z,17.00
2022-12-20T06:15:26.607Z,16.30
2022-12-20T06:20:28.620Z,16.60
2022-12-20T06:25:32.969Z,17.20
2022-12-20T06:30:35.200Z,17.73
2022-12-20T06:35:42.156Z,16.77
2022-12-20T06:40:44.372Z,17.07
2022-12-20T06:45:46.176Z,17.13
2022-12-20T06:50:55.304Z,16.97
2022-12-20T06:55:58.338Z,17.37
2022-12-20T07:01:00.844Z,16.70
2022-12-20T07:06:02.593Z,17.73
2022-12-20T07:11:07.986Z,16.67
2022-12-20T07:16:10.158Z,17.50
2022-12-20T07:21:14.089Z,15.90
2022-12-20T07:26:15.869Z,17.07
2022-12-20T07:31:17.624Z,17.80
2022-12-20T07:36:20.215Z,17.67
2022-12-20T07:41:22.166Z,17.20
2022-12-20T07:46:23.930Z,18.03
2022-12-20T07:51:31.257Z,18.03
2022-12-20T07:56:40.815Z,19.77
2022-12-20T08:01:44.302Z,19.33
2022-12-20T08:06:46.482Z,19.23
2022-12-20T08:11:48.858Z,19.20
2022-12-20T08:16:50.798Z,18.73
2022-12-20T08:21:52.505Z,20.53
2022-12-20T08:26:54.087Z,20.07
2022-12-20T08:31:55.719Z,20.20
2022-12-20T08:36:57.341Z,20.93
2022-12-20T08:41:58.984Z,19.40
2022-12-20T08:47:00.640Z,19.87
2022-12-20T08:52:02.337Z,19.30
2022-12-20T08:57:03.947Z,20.23
2022-12-20T09:02:06.765Z,20.27
2022-12-20T09:07:08.706Z,19.53
2022-12-20T09:12:10.320Z,19.90
2022-12-20T09:17:12.472Z,19.13
2022-12-20T09:22:14.088Z,19.23
2022-12-20T09:27:15.779Z,20.20
2022-12-20T09:32:17.389Z,20.40
2022-12-20T09:37:19.015Z,21.20
2022-12-20T09:42:22.712Z,21.03
2022-12-20T09:47:25.128Z,20.00
2022-12-20T09:52:56.501Z,19.63
2022-12-20T09:58:10.293Z,19.27
2022-12-20T10:03:16.809Z,20.40
2022-12-20T10:08:29.951Z,20.20
2022-12-20T10:13:36.533Z,20.70
2022-12-20T10:19:06.016Z,20.10
2022-12-20T10:24:16.889Z,19.83
2022-12-20T10:29:19.689Z,20.00
2022-12-20T10:34:21.337Z,21.20
2022-12-20T10:39:40.814Z,20.80
2022-12-20T10:44:44.145Z,20.90
2022-12-20T10:49:45.758Z,19.57
2022-12-20T10:54:47.800Z,19.70
2022-12-20T10:59:55.049Z,21.07
2022-12-20T11:05:01.225Z,20.47
2022-12-20T11:10:27.538Z,20.40
2022-12-20T11:15:34.823Z,19.37
2022-12-20T11:20:53.506Z,20.10
2022-12-20T11:26:19.890Z,20.00
2022-12-20T11:31:36.525Z,20.10
2022-12-20T11:37:16.494Z,20.87
2022-12-20T11:42:24.083Z,20.80
2022-12-20T11:47:25.791Z,20.60
2022-12-20T11:52:48.840Z,22.63
2022-12-20T11:58:19.728Z,20.17
2022-12-20T12:03:33.354Z,21.80
2022-12-20T12:08:55.361Z,21.00
2022-12-20T12:13:57.865Z,21.17
2022-12-20T12:19:00.985Z,22.27
2022-12-20T12:24:23.689Z,22.00
2022-12-20T12:29:25.657Z,20.80
2022-12-20T12:34:39.354Z,21.20
2022-12-20T12:40:05.210Z,21.47
2022-12-20T12:45:28.424Z,21.50
2022-12-20T12:50:37.732Z,20.87
2022-12-20T12:55:40.834Z,21.73
2022-12-20T13:00:52.869Z,21.27
2022-12-20T13:05:54.609Z,21.13
2022-12-20T13:10:57.950Z,22.00
2022-12-20T13:16:11.504Z,21.63
2022-12-20T13:21:32.643Z,22.83
2022-12-20T13:26:50.978Z,21.17
2022-12-20T13:31:54.774Z,21.90
2022-12-20T13:36:59.454Z,20.60
2022-12-20T13:42:24.095Z,21.83
2022-12-20T13:47:25.712Z,22.90
2022-12-20T13:52:32.565Z,22.33
2022-12-20T13:57:44.968Z,21.10
2022-12-20T14:02:46.939Z,21.50
2022-12-20T14:07:58.670Z,21.83
2022-12-20T14:13:00.412Z,22.20
2022-12-20T14:18:21.889Z,22.60
2022-12-20T14:23:38.275Z,22.17
2022-12-20T14:28:44.342Z,21.60
2022-12-20T14:33:46.003Z,21.60
2022-12-20T14:38:49.789Z,21.90
2022-12-20T14:43:56.679Z,21.80
2022-12-20T14:49:19.107Z,21.43
2022-12-20T14:55:05.621Z,21.33
2022-12-20T15:00:18.557Z,21.90
2022-12-20T15:05:35.935Z,21.80
2022-12-20T15:10:37.862Z,23.10
2022-12-20T15:15:39.689Z,21.93
2022-12-20T15:20:45.899Z,22.70
2022-12-20T15:25:48.454Z,21.03
2022-12-20T15:30:51.301Z,22.50
2022-12-20T15:35:53.769Z,21.03
2022-12-20T15:41:00.690Z,21.73
2022-12-20T15:46:02.295Z,22.33
2022-12-20T15:51:31.380Z,21.23
2022-12-20T15:56:33.083Z,21.77
2022-12-20T16:01:40.833Z,22.63
2022-12-20T16:06:43.857Z,22.27
2022-12-20T16:11:45.872Z,20.27
2022-12-20T16:16:49.946Z,21.77
2022-12-20T16:21:52.360Z,21.87
2022-12-20T16:26:53.989Z,22.43
2022-12-20T16:31:55.758Z,22.27
2022-12-20T16:36:57.422Z,20.63
2022-12-20T16:42:01.532Z,22.47
2022-12-20T16:47:03.205Z,21.43
2022-12-20T16:52:06.585Z,22.40
2022-12-20T16:57:08.614Z,22.03
2022-12-20T17:02:23.743Z,22.00
2022-12-20T17:07:25.944Z,23.33
2022-12-20T17:12:27.604Z,21.10
2022-12-20T17:17:29.240Z,21.27
2022-12-20T17:22:30.913Z,21.73
2022-12-20T17:27:32.613Z,20.90
2022-12-20T17:32:34.253Z,20.87
2022-12-20T17:37:35.821Z,21.73
2022-12-20T17:42:37.470Z,21.20
2022-12-20T17:47:39.107Z,20.37
2022-12-20T17:52:40.720Z,20.43
2022-12-20T17:57:42.353Z,20.43
2022-12-20T18:02:44.097Z,21.20
2022-12-20T18:07:55.597Z,20.50
2022-12-20T18:12:57.205Z,21.23
2022-12-20T18:17:58.855Z,21.60
2022-12-20T18:23:00.521Z,21.03
2022-12-20T18:28:02.394Z,20.17
2022-12-20T18:33:04.024Z,21.23
2022-12-20T18:38:05.625Z,21.17
2022-12-20T18:43:07.235Z,20.10
2022-12-20T18:48:08.876Z,20.33
2022-12-20T18:53:10.534Z,20.03
2022-12-20T18:58:13.522Z,20.20
2022-12-20T19:03:16.193Z,21.17
2022-12-20T19:08:19.047Z,20.37
2022-12-20T19:13:21.205Z,20.23
2022-12-20T19:18:22.849Z,20.23
2022-12-20T19:23:24.553Z,20.17
2022-12-20T19:28:26.187Z,19.83
2022-12-20T19:33:27.846Z,19.53
2022-12-20T19:38:29.446Z,19.40
2022-12-20T19:43:31.337Z,19.03
2022-12-20T19:48:33.699Z,20.23
2022-12-20T19:53:35.909Z,19.27
2022-12-20T19:58:38.039Z,20.50
2022-12-20T20:03:39.716Z,19.83
2022-12-20T20:08:41.643Z,18.83
2022-12-20T20:13:43.357Z,20.57
2022-12-20T20:18:46.123Z,19.27
2022-12-20T20:23:48.728Z,20.27
2022-12-20T20:28:50.977Z,19.30
2022-12-20T20:33:52.797Z,20.57
2022-12-20T20:38:54.453Z,18.93
2022-12-20T20:43:56.077Z,18.80
2022-12-20T20:48:58.362Z,19.80
2022-12-20T20:53:59.992Z,18.57
2022-12-20T20:59:06.898Z,19.87
2022-12-20T21:04:09.863Z,19.30
2022-12-20T21:09:11.715Z,19.20
2022-12-20T21:14:13.436Z,20.37
2022-12-20T21:19:16.383Z,19.50
2022-12-20T21:24:18.190Z,19.50
2022-12-20T21:29:20.315Z,19.60
2022-12-20T21:34:21.968Z,20.23
2022-12-20T21:39:24.367Z,20.27
2022-12-20T21:44:26.014Z,20.30
2022-12-20T21:49:27.592Z,19.93
2022-12-20T21:54:29.190Z,18.93
2022-12-20T21:59:30.917Z,20.00
2022-12-20T22:04:33.335Z,18.63
2022-12-20T22:09:34.931Z,19.87
2022-12-20T22:14:36.555Z,19.77
2022-12-20T22:19:38.368Z,17.93
2022-12-20T22:24:40.121Z,18.90
2022-12-20T22:29:41.727Z,19.80
2022-12-20T22:34:43.325Z,19.07
2022-12-20T22:39:44.960Z,20.17
2022-12-20T22:44:46.565Z,18.73
2022-12-20T22:49:48.131Z,18.57
2022-12-20T22:54:49.755Z,19.60
2022-12-20T22:59:51.375Z,19.50
2022-12-20T23:04:53.622Z,19.17
2022-12-20T23:09:55.214Z,18.50
2022-12-20T23:15:15.232Z,19.07
2022-12-20T23:20:35.606Z,18.50
2022-12-20T23:25:37.190Z,18.37
2022-12-20T23:30:38.784Z,18.87
2022-12-20T23:35:40.422Z,19.23
2022-12-20T23:40:42.049Z,18.33
2022-12-20T23:45:43.680Z,18.00
2022-12-20T23:50:45.366Z,17.77
2022-12-20T23:55:56.990Z,18.63
